Time;durP1;ratioP1;P1;durP2;ratioP2;P2;SDS_P1;SDS_P2;PMS_P1;PMS_P2;Temp;Humidity;BMP_temperature;BMP_pressure;BME280_temperature;BME280_humidity;BME280_pressure;Samples;Min_cycle;Max_cycle;Signal;HPM_P1;HPM_P2
2021/05/22 00:02:04;;;;;;;14.70;3.42;;;;;;;10.05;56.25;99461.66;5071035;28;20634;-53
2021/05/22 00:04:30;;;;;;;12.15;3.35;;;;;;;9.59;56.65;99383.47;5071270;28;20485;-51
2021/05/22 00:06:55;;;;;;;8.88;3.80;;;;;;;9.95;56.88;99452.69;5070819;28;20032;-46
2021/05/22 00:09:21;;;;;;;10.63;3.55;;;;;;;9.88;56.84;99444.31;5071628;28;20505;-48
2021/05/22 00:11:47;;;;;;;9.52;3.17;;;;;;;9.96;57.32;99465.06;5070538;28;20407;-47
2021/05/22 00:14:12;;;;;;;11.52;2.90;;;;;;;9.95;56.71;99458.03;5071970;28;20469;-55
2021/05/22 00:16:38;;;;;;;8.35;3.20;;;;;;;9.89;56.86;99459.41;5071317;28;20066;-57
2021/05/22 00:19:03;;;;;;;9.77;3.10;;;;;;;9.84;56.96;99455.44;5071952;28;20044;-50
2021/05/22 00:21:29;;;;;;;5.05;3.08;;;;;;;9.79;57.07;99449.63;5071620;28;20032;-49
2021/05/22 00:23:54;;;;;;;10.35;3.47;;;;;;;9.89;57.13;99477.28;5071543;28;20511;-46
2021/05/22 00:26:20;;;;;;;9.02;2.92;;;;;;;9.87;57.34;99473.88;5070860;28;20029;-48
2021/05/22 00:28:46;;;;;;;8.55;3.45;;;;;;;9.85;57.58;99478.50;5071503;28;20033;-49
2021/05/22 00:31:11;;;;;;;8.80;3.50;;;;;;;9.83;57.33;99475.94;5071375;28;20033;-50
2021/05/22 00:33:36;;;;;;;12.63;3.47;;;;;;;9.73;57.24;99464.34;5071717;28;20089;-50
2021/05/22 00:36:02;;;;;;;11.20;3.13;;;;;;;9.69;57.31;99450.38;5071371;28;20036;-49
2021/05/22 00:38:28;;;;;;;15.85;3.38;;;;;;;9.62;57.23;99452.69;5070725;28;20083;-49
2021/05/22 00:40:54;;;;;;;8.90;3.20;;;;;;;9.75;57.94;99478.44;5070958;28;20033;-52
2021/05/22 00:43:19;;;;;;;14.73;3.63;;;;;;;9.68;57.60;99466.56;5069677;28;20040;-51
2021/05/22 00:45:45;;;;;;;9.70;3.10;;;;;;;9.60;57.75;99464.50;5071051;28;20043;-53
2021/05/22 00:48:11;;;;;;;11.40;3.00;;;;;;;9.69;57.53;99481.63;5071130;28;20039;-49
2021/05/22 00:50:40;;;;;;;11.55;3.83;;;;;;;9.65;57.65;99472.16;5071685;28;20036;-49
2021/05/22 00:53:07;;;;;;;7.50;3.15;;;;;;;9.62;57.53;99474.06;5070152;28;20038;-50
2021/05/22 00:55:34;;;;;;;7.90;3.00;;;;;;;9.67;57.71;99479.06;5070991;28;20029;-45
2021/05/22 00:58:00;;;;;;;15.85;2.88;;;;;;;9.65;57.63;99472.97;5071253;28;20155;-57
2021/05/22 01:00:50;;;;;;;13.38;3.38;;;;;;;9.70;58.04;99485.97;5071049;28;20394;-46
2021/05/22 01:03:42;;;;;;;10.85;3.10;;;;;;;9.66;57.60;99488.03;5070418;28;20037;-51
2021/05/22 01:06:18;;;;;;;6.63;2.83;;;;;;;9.31;57.72;99436.53;5071479;28;20032;-50
2021/05/22 01:08:53;;;;;;;9.45;3.17;;;;;;;9.63;57.83;99499.00;5071164;28;20070;-47
2021/05/22 01:11:21;;;;;;;11.88;3.10;;;;;;;9.50;57.45;99479.59;5070509;28;20091;-53
2021/05/22 01:13:53;;;;;;;9.90;2.53;;;;;;;9.38;57.43;99460.91;5070942;28;20048;-48
2021/05/22 01:16:21;;;;;;;9.50;2.88;;;;;;;9.58;57.81;99486.00;5071617;28;20028;-48
2021/05/22 01:18:47;;;;;;;12.32;3.45;;;;;;;9.63;57.73;99499.00;5071002;28;20044;-51
2021/05/22 01:21:14;;;;;;;6.68;3.17;;;;;;;9.52;57.58;99477.63;5070233;28;20508;-50
2021/05/22 01:23:50;;;;;;;6.15;2.83;;;;;;;9.45;57.43;99467.44;5070967;28;20497;-51
2021/05/22 01:26:16;;;;;;;7.75;2.60;;;;;;;9.59;57.31;99486.88;5070689;28;20047;-46
2021/05/22 01:28:44;;;;;;;5.38;2.67;;;;;;;9.62;57.39;99503.47;5070957;28;20028;-56
2021/05/22 01:31:10;;;;;;;8.68;3.00;;;;;;;9.71;57.39;99509.06;5070676;28;20382;-51
2021/05/22 01:33:37;;;;;;;7.70;3.22;;;;;;;9.72;57.09;99497.41;5070178;28;20189;-46
2021/05/22 01:36:05;;;;;;;13.07;3.00;;;;;;;9.76;56.69;99506.84;5070573;28;20032;-49
2021/05/22 01:38:31;;;;;;;9.27;3.17;;;;;;;9.62;56.95;99495.47;5070243;28;20052;-51
2021/05/22 01:40:56;;;;;;;14.85;3.10;;;;;;;9.70;56.93;99499.34;5069426;28;20035;-49
2021/05/22 01:43:22;;;;;;;6.47;2.67;;;;;;;9.79;56.69;99511.94;5070220;28;20130;-48
2021/05/22 01:45:51;;;;;;;10.93;2.92;;;;;;;9.81;56.69;99514.50;5070283;28;20033;-47
2021/05/22 01:48:19;;;;;;;9.75;3.35;;;;;;;9.88;56.34;99515.69;5070373;28;20039;-48
2021/05/22 01:50:50;;;;;;;12.70;3.20;;;;;;;9.90;56.22;99509.25;5069913;28;20039;-47
2021/05/22 01:53:17;;;;;;;7.28;3.13;;;;;;;9.95;55.98;99516.03;5070105;28;20082;-52
2021/05/22 01:55:46;;;;;;;13.07;3.00;;;;;;;9.98;55.56;99515.78;5070805;28;20383;-56
2021/05/22 01:58:12;;;;;;;8.00;2.97;;;;;;;9.96;55.27;99504.34;5070566;28;20036;-48
2021/05/22 02:00:39;;;;;;;9.98;3.08;;;;;;;9.70;55.33;99457.41;5070009;28;20081;-53
2021/05/22 02:03:30;;;;;;;14.32;3.03;;;;;;;10.16;55.25;99510.69;5069873;28;20069;-48
2021/05/22 02:05:58;;;;;;;10.80;3.03;;;;;;;10.22;54.62;99526.22;5069878;28;20119;-52
2021/05/22 02:08:26;;;;;;;7.65;2.67;;;;;;;10.30;54.25;99531.81;5070169;28;20043;-51
2021/05/22 02:10:52;;;;;;;11.27;3.15;;;;;;;10.32;53.84;99508.44;5069898;28;20032;-50
2021/05/22 02:13:18;;;;;;;11.20;3.30;;;;;;;10.12;52.80;99434.38;5069966;28;20406;-49
2021/05/22 02:16:11;;;;;;;9.07;3.05;;;;;;;10.93;52.45;99524.75;5070339;28;20063;-52
2021/05/22 02:18:38;;;;;;;12.95;3.22;;;;;;;11.01;51.57;99518.72;5068158;28;20090;-58
2021/05/22 02:21:05;;;;;;;7.78;3.00;;;;;;;11.30;50.82;99529.53;5069842;28;20040;-49
2021/05/22 02:23:35;;;;;;;7.18;2.72;;;;;;;11.52;50.30;99521.44;5069760;28;20034;-45
2021/05/22 02:26:01;;;;;;;15.80;3.22;;;;;;;11.75;49.59;99516.66;5069056;28;20040;-50
2021/05/22 02:28:36;;;;;;;6.97;2.75;;;;;;;12.16;47.91;99524.63;5069459;28;20028;-47
2021/05/22 02:31:02;;;;;;;9.10;2.80;;;;;;;12.48;47.62;99529.69;5069760;28;20448;-49
2021/05/22 02:33:29;;;;;;;6.72;2.55;;;;;;;12.69;47.09;99543.94;5069240;28;20036;-46
2021/05/22 02:35:55;;;;;;;11.52;3.25;;;;;;;12.86;46.82;99553.09;5069974;28;20040;-47
2021/05/22 02:38:33;;;;;;;7.38;2.58;;;;;;;12.91;45.98;99543.59;5069444;28;20101;-48
2021/05/22 02:41:06;;;;;;;10.15;2.97;;;;;;;13.03;45.31;99548.78;5069390;28;20043;-50
2021/05/22 02:43:33;;;;;;;10.18;3.05;;;;;;;13.00;45.59;99560.66;5069432;28;20505;-46
2021/05/22 02:46:00;;;;;;;12.63;3.08;;;;;;;13.00;45.20;99555.28;5069735;28;20040;-45
2021/05/22 02:48:26;;;;;;;6.90;2.90;;;;;;;12.95;45.07;99552.19;5069230;28;20036;-53
2021/05/22 02:50:52;;;;;;;13.27;3.55;;;;;;;12.94;45.06;99557.72;5069573;28;20033;-45
2021/05/22 02:53:20;;;;;;;8.90;3.25;;;;;;;12.89;44.97;99574.28;5073777;28;20047;-53
2021/05/22 02:55:50;;;;;;;8.20;3.55;;;;;;;12.92;44.51;99560.56;5073990;28;20044;-48
2021/05/22 02:58:17;;;;;;;8.23;3.15;;;;;;;12.82;44.42;99549.81;5073248;28;20051;-46
2021/05/22 03:00:44;;;;;;;11.65;3.53;;;;;;;12.93;44.29;99554.19;5073524;28;20086;-49
2021/05/22 03:03:10;;;;;;;8.13;3.25;;;;;;;12.92;43.90;99560.56;5073450;28;20486;-50
2021/05/22 03:05:37;;;;;;;5.78;2.58;;;;;;;12.98;43.72;99570.72;5073239;28;20040;-47
2021/05/22 03:08:03;;;;;;;9.02;3.50;;;;;;;13.00;43.79;99563.34;5073036;28;20028;-50
2021/05/22 03:10:30;;;;;;;6.65;2.80;;;;;;;13.02;43.79;99560.53;5073129;28;20036;-46
2021/05/22 03:12:55;;;;;;;7.05;3.03;;;;;;;13.13;43.31;99568.41;5073495;28;20054;-50
2021/05/22 03:15:21;;;;;;;10.93;3.80;;;;;;;12.85;42.98;99494.97;5073196;28;20033;-48
2021/05/22 03:17:47;;;;;;;8.63;3.28;;;;;;;13.48;42.55;99560.66;5071918;28;20078;-47
2021/05/22 03:20:12;;;;;;;11.60;3.38;;;;;;;14.05;41.26;99560.44;5072956;28;20082;-48
2021/05/22 03:22:38;;;;;;;8.55;3.35;;;;;;;14.81;39.89;99548.47;5072107;28;20358;-49
2021/05/22 03:25:04;;;;;;;7.50;3.65;;;;;;;15.90;37.88;99565.84;5072970;28;20074;-49
2021/05/22 03:27:31;;;;;;;5.88;3.58;;;;;;;16.80;36.13;99555.25;5072474;28;20044;-54
2021/05/22 03:29:57;;;;;;;7.20;3.30;;;;;;;17.87;34.37;99567.59;5072958;28;20485;-48
2021/05/22 03:32:23;;;;;;;7.95;4.00;;;;;;;18.80;32.68;99567.59;5073115;28;20039;-50
2021/05/22 03:34:49;;;;;;;9.10;3.70;;;;;;;19.74;31.27;99561.81;5071936;28;20119;-57
2021/05/22 03:37:15;;;;;;;14.57;3.60;;;;;;;20.54;29.77;99561.03;5072476;28;20128;-51
2021/05/22 03:39:41;;;;;;;5.72;3.35;;;;;;;21.18;28.57;99551.03;5072499;28;20029;-53
2021/05/22 03:42:07;;;;;;;9.57;3.70;;;;;;;21.91;27.63;99561.44;5073124;28;20052;-49
2021/05/22 03:44:32;;;;;;;8.13;3.75;;;;;;;22.50;26.52;99553.63;5072759;28;20047;-51
2021/05/22 03:46:58;;;;;;;8.93;3.25;;;;;;;23.04;25.40;99526.28;5072311;28;20040;-51
2021/05/22 03:49:23;;;;;;;12.52;3.67;;;;;;;23.84;24.41;99559.84;5072246;28;20040;-51
2021/05/22 03:51:49;;;;;;;10.63;3.72;;;;;;;24.48;23.37;99557.19;5073209;28;20402;-48
2021/05/22 03:54:14;;;;;;;7.65;3.20;;;;;;;24.93;22.66;99563.56;5072281;28;20132;-45
2021/05/22 03:56:40;;;;;;;13.90;3.25;;;;;;;25.41;22.27;99563.94;5072155;28;20038;-52
2021/05/22 03:59:05;;;;;;;7.88;3.10;;;;;;;26.16;21.35;99570.16;5072109;28;20440;-55
2021/05/22 04:01:31;;;;;;;11.98;3.50;;;;;;;26.66;20.77;99574.50;5071663;28;20115;-53
2021/05/22 04:03:56;;;;;;;8.80;3.25;;;;;;;27.28;19.90;99575.97;5071814;28;20033;-45
2021/05/22 04:06:22;;;;;;;8.23;3.25;;;;;;;27.83;18.97;99560.09;5071790;28;20458;-54
2021/05/22 04:08:47;;;;;;;8.45;3.30;;;;;;;28.44;18.59;99565.06;5072252;28;20041;-50
2021/05/22 04:11:13;;;;;;;4.78;2.40;;;;;;;28.84;17.64;99549.50;5071982;28;20028;-48
2021/05/22 04:13:38;;;;;;;7.00;2.50;;;;;;;29.44;17.08;99573.81;5071820;28;20485;-49
2021/05/22 04:16:04;;;;;;;6.88;2.92;;;;;;;30.02;16.19;99571.50;5070783;28;20383;-51
2021/05/22 04:18:30;;;;;;;9.45;2.83;;;;;;;30.66;15.79;99569.09;5071812;28;20051;-52
2021/05/22 04:20:55;;;;;;;5.40;2.33;;;;;;;31.24;15.12;99582.22;5071811;28;20033;-50
2021/05/22 04:23:21;;;;;;;9.75;2.35;;;;;;;31.65;14.55;99590.72;5072076;28;20037;-51
2021/05/22 04:25:46;;;;;;;7.28;2.75;;;;;;;32.16;14.41;99569.00;5071786;28;20036;-49
2021/05/22 04:28:12;;;;;;;6.63;2.15;;;;;;;32.61;14.18;99572.97;5071355;28;20036;-52
2021/05/22 04:30:37;;;;;;;4.35;2.38;;;;;;;33.23;13.48;99569.28;5071690;28;20028;-48
2021/05/22 04:33:03;;;;;;;4.57;1.85;;;;;;;33.52;12.70;99571.47;5072004;28;20073;-50
2021/05/22 04:35:28;;;;;;;9.40;2.20;;;;;;;33.87;12.59;99577.97;5071522;28;20120;-52
2021/05/22 04:37:54;;;;;;;8.82;2.40;;;;;;;34.36;12.22;99592.13;5071069;28;20036;-51
2021/05/22 04:40:19;;;;;;;6.35;2.53;;;;;;;34.54;11.83;99542.56;5072313;28;20078;-53
2021/05/22 04:42:45;;;;;;;6.60;2.53;;;;;;;35.23;11.72;99586.97;5071314;28;20552;-53
2021/05/22 04:45:11;;;;;;;9.65;2.70;;;;;;;35.35;11.25;99576.22;5071262;28;20040;-51
2021/05/22 04:47:38;;;;;;;6.65;2.22;;;;;;;35.72;11.20;99584.19;5071453;28;20461;-50
2021/05/22 04:50:06;;;;;;;6.57;2.45;;;;;;;36.09;10.81;99595.69;5071455;28;20032;-52
2021/05/22 04:52:33;;;;;;;5.70;2.33;;;;;;;36.66;10.77;99592.88;5071133;28;20516;-52
2021/05/22 04:54:59;;;;;;;6.68;1.98;;;;;;;36.86;10.49;99597.25;5070711;28;20033;-51
2021/05/22 04:57:24;;;;;;;9.00;2.55;;;;;;;37.24;10.09;99579.56;5071571;28;20028;-54
2021/05/22 04:59:50;;;;;;;6.93;2.20;;;;;;;37.78;10.29;99590.22;5071870;28;20535;-53
2021/05/22 05:02:15;;;;;;;6.18;2.20;;;;;;;38.18;9.45;99593.25;5070415;28;20272;-47
2021/05/22 05:04:41;;;;;;;5.43;2.00;;;;;;;38.68;9.08;99591.53;5071173;28;20036;-49
2021/05/22 05:07:06;;;;;;;4.05;1.92;;;;;;;39.15;8.73;99604.31;5071127;28;20170;-51
2021/05/22 05:09:34;;;;;;;5.63;1.80;;;;;;;39.60;8.41;99608.97;5071326;28;20373;-50
2021/05/22 05:12:09;;;;;;;5.63;2.03;;;;;;;40.11;8.41;99589.78;5070546;28;20374;-48
2021/05/22 05:14:34;;;;;;;;;;;;;;;42.27;8.14;99607.72;5070253;28;20039;-49
2021/05/22 05:17:01;;;;;;;9.27;1.90;;;;;;;41.10;7.45;99567.69;5070988;28;19916;-54
2021/05/22 05:19:31;;;;;;;3.75;1.60;;;;;;;41.60;7.22;99599.91;5070847;28;20029;-52
2021/05/22 05:21:57;;;;;;;8.27;2.22;;;;;;;41.58;6.92;99616.25;5070219;28;20410;-54
2021/05/22 05:24:23;;;;;;;4.53;1.90;;;;;;;41.63;7.06;99611.63;5070776;28;20024;-51
2021/05/22 05:26:49;;;;;;;3.35;1.80;;;;;;;41.84;6.84;99620.09;5069491;28;20035;-49
2021/05/22 05:29:14;;;;;;;4.63;1.95;;;;;;;42.21;6.61;99608.28;5060385;28;20035;-54
2021/05/22 05:31:40;;;;;;;5.85;2.00;;;;;;;42.25;6.12;99612.06;5069912;28;20100;-56
2021/05/22 05:34:06;;;;;;;5.97;1.58;;;;;;;42.38;6.08;99619.38;5070330;28;20043;-56
2021/05/22 05:36:32;;;;;;;7.55;1.92;;;;;;;42.24;5.98;99618.84;5070374;28;20171;-52
2021/05/22 05:38:57;;;;;;;5.30;2.05;;;;;;;41.99;6.17;99629.94;5070424;28;20040;-55
2021/05/22 05:41:23;;;;;;;3.10;1.58;;;;;;;42.00;6.46;99621.13;5070337;28;20056;-47
2021/05/22 05:43:49;;;;;;;6.38;1.95;;;;;;;42.10;6.21;99625.56;5069815;28;20107;-50
2021/05/22 05:46:14;;;;;;;11.70;2.05;;;;;;;42.12;6.17;99628.84;5070380;28;20044;-50
2021/05/22 05:48:40;;;;;;;2.13;1.70;;;;;;;42.40;6.03;99636.72;5070273;28;20033;-46
2021/05/22 05:51:05;;;;;;;2.85;1.80;;;;;;;42.41;5.92;99595.38;5069810;28;20043;-52
2021/05/22 05:53:31;;;;;;;3.55;1.55;;;;;;;42.53;5.36;99615.13;5069893;28;20378;-51
2021/05/22 05:55:56;;;;;;;3.97;1.52;;;;;;;42.83;5.54;99628.25;5069835;28;20042;-53
2021/05/22 05:58:22;;;;;;;4.93;1.70;;;;;;;42.84;5.43;99624.25;5069611;28;20036;-53
2021/05/22 06:00:47;;;;;;;4.43;1.70;;;;;;;42.91;5.37;99595.56;5069805;28;20078;-51
2021/05/22 06:03:14;;;;;;;4.88;1.52;;;;;;;43.38;5.31;99603.63;5069375;28;20028;-50
2021/05/22 06:05:39;;;;;;;5.35;1.65;;;;;;;43.83;4.73;99640.50;5070112;28;20042;-52
2021/05/22 06:08:05;;;;;;;3.60;1.65;;;;;;;44.16;4.38;99637.53;5069564;28;20033;-50
2021/05/22 06:10:30;;;;;;;5.28;1.40;;;;;;;44.27;4.46;99595.53;5069474;28;20119;-49
2021/05/22 06:12:57;;;;;;;4.32;1.70;;;;;;;44.83;4.48;99644.69;5069954;28;20043;-50
2021/05/22 06:15:25;;;;;;;7.47;1.83;;;;;;;45.04;4.17;99637.19;5069565;28;20047;-49
2021/05/22 06:17:52;;;;;;;5.35;1.50;;;;;;;44.79;4.33;99651.41;5068874;28;20032;-48
2021/05/22 06:20:18;;;;;;;2.60;1.45;;;;;;;44.68;4.60;99642.66;5069978;28;20471;-51
2021/05/22 06:22:44;;;;;;;11.18;2.30;;;;;;;45.19;4.30;99622.25;5069524;28;20028;-51
2021/05/22 06:25:10;;;;;;;3.65;1.60;;;;;;;46.16;3.98;99642.75;5069326;28;20086;-48
2021/05/22 06:27:36;;;;;;;6.63;1.63;;;;;;;46.66;3.44;99626.03;5069664;28;20028;-54
2021/05/22 06:30:05;;;;;;;4.40;1.90;;;;;;;46.77;3.63;99654.53;5069094;28;20043;-48
2021/05/22 06:32:31;;;;;;;5.05;1.58;;;;;;;47.16;3.63;99639.47;5069269;28;20493;-54
2021/05/22 06:34:57;;;;;;;4.63;1.83;;;;;;;47.74;2.79;99662.34;5069606;28;20036;-53
2021/05/22 06:37:23;;;;;;;13.10;2.15;;;;;;;47.32;3.00;99645.03;5067461;28;20025;-52
2021/05/22 06:39:49;;;;;;;3.45;1.50;;;;;;;46.77;3.31;99659.38;5068818;28;20775;-52
2021/05/22 06:42:14;;;;;;;9.13;1.60;;;;;;;45.96;3.66;99659.69;5068806;28;20067;-50
2021/05/22 06:44:45;;;;;;;6.18;1.50;;;;;;;45.21;3.86;99619.88;5069436;28;20494;-46
2021/05/22 06:47:11;;;;;;;3.92;1.60;;;;;;;44.90;4.74;99631.94;5068139;28;20047;-48
2021/05/22 06:49:36;;;;;;;4.57;1.75;;;;;;;45.19;3.96;99644.84;5069043;28;20033;-49
2021/05/22 06:52:02;;;;;;;3.42;2.08;;;;;;;46.25;4.13;99642.53;5069697;28;20071;-49
2021/05/22 06:54:31;;;;;;;5.05;1.80;;;;;;;46.75;3.71;99613.63;5069933;28;20066;-51
2021/05/22 06:56:56;;;;;;;4.80;1.90;;;;;;;47.59;3.22;99636.56;5068276;28;20110;-50
2021/05/22 06:59:22;;;;;;;7.97;2.03;;;;;;;46.59;3.40;99625.88;5069052;28;20466;-48
2021/05/22 07:01:48;;;;;;;3.75;1.90;;;;;;;46.77;4.12;99626.22;5069405;28;20033;-46
2021/05/22 07:04:13;;;;;;;4.05;1.77;;;;;;;47.25;3.30;99623.03;5069628;28;20123;-53
2021/05/22 07:06:38;;;;;;;1.98;1.75;;;;;;;47.18;3.32;99628.59;5069264;28;20562;-50
2021/05/22 07:09:04;;;;;;;4.95;1.88;;;;;;;45.42;3.87;99605.47;5068974;28;20470;-47
2021/05/22 07:11:30;;;;;;;4.70;1.88;;;;;;;45.53;3.88;99639.66;5069284;28;20037;-49
2021/05/22 07:13:55;;;;;;;4.85;1.90;;;;;;;46.04;4.16;99629.53;5069229;28;20055;-51
2021/05/22 07:16:21;;;;;;;2.83;1.63;;;;;;;46.66;3.66;99569.38;5069036;28;20135;-52
2021/05/22 07:18:46;;;;;;;5.20;2.25;;;;;;;46.45;3.72;99612.25;5068510;28;20451;-48
2021/05/22 07:21:12;;;;;;;3.75;1.80;;;;;;;46.81;3.28;99626.31;5069109;28;20033;-50
2021/05/22 07:23:38;;;;;;;3.00;1.83;;;;;;;47.26;3.37;99607.66;5069622;28;20416;-51
2021/05/22 07:26:04;;;;;;;4.80;2.10;;;;;;;48.18;2.94;99622.06;5068167;28;20060;-46
2021/05/22 07:28:33;;;;;;;4.03;1.80;;;;;;;48.91;2.76;99626.53;5059429;28;20063;-51
2021/05/22 07:31:00;;;;;;;2.70;1.98;;;;;;;48.73;2.87;99622.69;5059528;28;20032;-49
2021/05/22 07:33:27;;;;;;;4.40;2.17;;;;;;;49.23;2.69;99622.38;5056724;28;20039;-49
2021/05/22 07:35:53;;;;;;;3.10;1.63;;;;;;;49.10;2.43;99621.84;5058403;28;20256;-48
2021/05/22 07:38:19;;;;;;;2.97;1.58;;;;;;;49.05;2.34;99623.00;5061088;28;20481;-50
2021/05/22 07:40:44;;;;;;;4.65;1.90;;;;;;;49.66;2.13;99613.38;5061285;28;20188;-51
2021/05/22 07:43:10;;;;;;;4.75;2.28;;;;;;;49.76;2.27;99632.53;5061022;28;20147;-54
2021/05/22 07:45:35;;;;;;;3.60;1.85;;;;;;;47.90;2.87;99622.44;5062362;28;20048;-53
2021/05/22 07:48:01;;;;;;;4.40;1.80;;;;;;;46.83;3.15;99621.06;5060760;28;20055;-51
2021/05/22 07:50:26;;;;;;;6.70;1.83;;;;;;;45.10;3.91;99622.44;5062008;28;20441;-49
2021/05/22 07:52:52;;;;;;;6.47;1.95;;;;;;;43.66;4.40;99622.63;5062217;28;20068;-50
2021/05/22 07:55:18;;;;;;;6.03;1.75;;;;;;;40.95;5.99;99569.09;5060219;28;20037;-51
2021/05/22 07:57:44;;;;;;;6.57;2.15;;;;;;;38.91;6.87;99611.94;5066457;28;20141;-49
2021/05/22 08:00:10;;;;;;;9.73;2.20;;;;;;;37.53;8.22;99614.75;5071765;28;20093;-50
2021/05/22 08:02:37;;;;;;;2.40;1.55;;;;;;;37.18;8.21;99603.97;5072168;28;20040;-56
2021/05/22 08:05:04;;;;;;;2.75;1.70;;;;;;;38.09;8.19;99614.69;5072239;28;20044;-50
2021/05/22 08:07:30;;;;;;;3.90;1.73;;;;;;;39.55;6.93;99606.31;5072571;28;20028;-52
2021/05/22 08:09:55;;;;;;;3.30;1.80;;;;;;;40.92;6.45;99620.28;5071841;28;20043;-50
2021/05/22 08:12:21;;;;;;;3.10;1.38;;;;;;;41.05;6.14;99615.63;5071739;28;20048;-49
2021/05/22 08:14:46;;;;;;;7.65;1.60;;;;;;;40.09;6.26;99606.13;5064489;28;20082;-53
2021/05/22 08:17:12;;;;;;;3.25;1.40;;;;;;;38.12;7.96;99611.31;5051714;28;20505;-52
2021/05/22 08:19:37;;;;;;;4.72;1.73;;;;;;;35.96;9.27;99608.38;5051168;28;20120;-51
2021/05/22 08:22:03;;;;;;;2.20;1.17;;;;;;;34.00;10.24;99604.28;5052425;28;20375;-50
2021/05/22 08:24:28;;;;;;;3.28;1.10;;;;;;;32.13;11.84;99608.31;5051559;28;20120;-56
2021/05/22 08:26:54;;;;;;;4.38;1.60;;;;;;;30.45;13.43;99603.94;5050843;28;20485;-54
2021/05/22 08:29:20;;;;;;;4.03;1.40;;;;;;;28.92;14.52;99603.34;5051245;28;20044;-54
2021/05/22 08:31:45;;;;;;;2.50;1.30;;;;;;;27.69;15.47;99592.53;5051816;28;20025;-52
2021/05/22 08:34:11;;;;;;;3.95;1.60;;;;;;;27.08;16.03;99612.91;5050802;28;20242;-52
2021/05/22 08:36:36;;;;;;;3.13;1.40;;;;;;;26.41;16.84;99611.19;5050669;28;20441;-56
2021/05/22 08:39:03;;;;;;;4.55;1.52;;;;;;;25.86;17.74;99615.72;5051546;28;20043;-50
2021/05/22 08:41:28;;;;;;;4.47;1.27;;;;;;;25.51;17.98;99625.41;5051146;28;20057;-53
2021/05/22 08:43:54;;;;;;;4.65;1.50;;;;;;;25.11;18.58;99609.31;5050926;28;20124;-49
2021/05/22 08:46:21;;;;;;;2.60;1.30;;;;;;;24.61;18.76;99610.97;5051728;28;20059;-52
2021/05/22 08:48:47;;;;;;;3.90;1.50;;;;;;;24.54;18.99;99637.56;5051139;28;20084;-49
2021/05/22 08:51:14;;;;;;;5.07;1.60;;;;;;;24.31;19.31;99629.91;5051407;28;20086;-54
2021/05/22 08:53:40;;;;;;;4.65;1.50;;;;;;;24.18;19.48;99618.00;5051044;28;20179;-48
2021/05/22 08:56:06;;;;;;;4.43;1.38;;;;;;;24.29;19.59;99616.47;5053582;28;20040;-54
2021/05/22 08:58:32;;;;;;;4.15;1.17;;;;;;;23.92;19.53;99565.09;5062441;28;20525;-52
2021/05/22 09:01:01;;;;;;;2.80;1.30;;;;;;;24.09;19.73;99619.28;5060561;28;20052;-51
2021/05/22 09:03:27;;;;;;;2.63;1.35;;;;;;;23.92;19.57;99636.19;5070606;28;20083;-50
2021/05/22 09:05:52;;;;;;;3.15;1.27;;;;;;;23.87;19.99;99611.38;5070819;28;20036;-51
2021/05/22 09:08:18;;;;;;;3.80;1.20;;;;;;;23.97;19.60;99608.16;5071274;28;20165;-49
2021/05/22 09:10:46;;;;;;;3.70;1.27;;;;;;;24.18;19.21;99626.19;5070926;28;20162;-53
2021/05/22 09:13:19;;;;;;;6.47;1.50;;;;;;;24.28;19.41;99633.06;5070680;28;20501;-48
2021/05/22 09:15:46;;;;;;;2.10;1.30;;;;;;;24.34;19.23;99621.25;5070607;28;20048;-49
2021/05/22 09:18:17;;;;;;;2.40;1.08;;;;;;;24.40;19.57;99611.34;5071273;28;20036;-54
2021/05/22 09:20:49;;;;;;;3.60;1.00;;;;;;;24.60;19.57;99625.72;5070538;28;20486;-52
2021/05/22 09:23:16;;;;;;;4.30;1.15;;;;;;;24.61;19.07;99621.94;5070585;28;20048;-51
2021/05/22 09:26:03;;;;;;;5.50;1.40;;;;;;;24.29;19.23;99613.72;5070846;28;20039;-48
2021/05/22 09:28:31;;;;;;;1.65;1.30;;;;;;;24.13;19.57;99628.75;5070417;28;20991;-51
2021/05/22 09:30:58;;;;;;;6.63;1.45;;;;;;;24.01;19.88;99611.31;5070815;28;20044;-51
2021/05/22 09:33:29;;;;;;;6.47;1.40;;;;;;;24.21;20.33;99633.97;5070151;28;20029;-50
2021/05/22 09:36:03;;;;;;;8.68;1.67;;;;;;;24.44;20.06;99632.56;5063653;28;20028;-54
2021/05/22 09:38:49;;;;;;;3.15;1.70;;;;;;;24.55;19.91;99619.22;5061060;28;20587;-49
2021/05/22 09:41:24;;;;;;;2.85;1.40;;;;;;;24.68;19.36;99632.84;5063822;28;20060;-52
2021/05/22 09:44:07;;;;;;;1.85;1.25;;;;;;;24.67;19.33;99622.94;5069784;28;20040;-49
2021/05/22 09:46:35;;;;;;;8.32;1.73;;;;;;;24.28;19.83;99616.66;5068035;28;20036;-53
2021/05/22 09:49:03;;;;;;;3.25;1.38;;;;;;;24.34;20.04;99633.03;5069661;28;20093;-51
2021/05/22 09:51:28;;;;;;;3.10;1.38;;;;;;;24.33;19.92;99611.38;5059765;28;20040;-49
2021/05/22 09:53:54;;;;;;;5.53;1.38;;;;;;;24.34;19.62;99599.38;5060688;28;20039;-51
2021/05/22 09:56:27;;;;;;;4.53;1.20;;;;;;;24.41;19.74;99633.00;5058709;28;20443;-51
2021/05/22 09:58:54;;;;;;;1.67;1.20;;;;;;;24.05;20.22;99621.63;5053453;28;20024;-55
2021/05/22 10:01:23;;;;;;;4.50;1.48;;;;;;;24.04;19.85;99622.69;5049832;28;20040;-48
2021/05/22 10:03:48;;;;;;;4.03;1.10;;;;;;;24.04;19.85;99610.91;5049770;28;20505;-51
2021/05/22 10:06:15;;;;;;;1.45;1.02;;;;;;;24.34;19.45;99626.72;5049639;28;20041;-54
2021/05/22 10:08:42;;;;;;;1.67;1.20;;;;;;;24.49;19.43;99626.44;5049884;28;20039;-62
2021/05/22 10:11:07;;;;;;;2.50;1.23;;;;;;;24.75;19.41;99614.47;5049256;28;20045;-57
2021/05/22 10:13:33;;;;;;;5.22;1.23;;;;;;;24.87;19.31;99622.81;5049406;28;20037;-49
2021/05/22 10:16:01;;;;;;;4.20;1.10;;;;;;;24.62;19.44;99584.47;5063088;28;20028;-48
2021/05/22 10:18:28;;;;;;;3.30;1.27;;;;;;;24.70;19.32;99614.28;5052583;28;20048;-53
2021/05/22 10:20:55;;;;;;;4.50;1.77;;;;;;;24.77;19.37;99631.53;5048373;28;20117;-53
2021/05/22 10:23:22;;;;;;;4.97;1.13;;;;;;;24.86;19.15;99623.03;5047910;28;20106;-53
2021/05/22 10:25:49;;;;;;;6.63;1.13;;;;;;;24.88;19.10;99637.34;5049831;28;20036;-54
2021/05/22 10:28:15;;;;;;;3.28;1.20;;;;;;;24.82;19.30;99617.16;5049992;28;20033;-52
2021/05/22 10:30:41;;;;;;;2.17;1.10;;;;;;;24.78;19.13;99621.41;5049801;28;20456;-51
2021/05/22 10:33:09;;;;;;;3.38;1.23;;;;;;;24.84;19.45;99619.66;5050386;28;20545;-50
2021/05/22 10:35:42;;;;;;;4.28;1.50;;;;;;;25.07;19.28;99624.53;5049113;28;20505;-49
2021/05/22 10:38:08;;;;;;;4.07;1.25;;;;;;;25.06;18.64;99623.69;5049823;28;20123;-52
2021/05/22 10:40:51;;;;;;;3.78;1.33;;;;;;;25.12;18.60;99621.13;5049723;28;20044;-53
2021/05/22 10:43:42;;;;;;;4.28;1.30;;;;;;;25.16;18.76;99623.19;5049896;28;20055;-49
2021/05/22 10:46:08;;;;;;;4.70;1.42;;;;;;;25.03;18.83;99626.06;5050112;28;20097;-50
2021/05/22 10:48:35;;;;;;;3.72;1.17;;;;;;;24.80;18.76;99630.25;5049433;28;20035;-53
2021/05/22 10:51:00;;;;;;;4.32;1.40;;;;;;;24.42;19.05;99628.38;5049581;28;20033;-46
2021/05/22 10:53:32;;;;;;;4.28;1.80;;;;;;;24.32;19.75;99623.38;5050177;28;20091;-54
2021/05/22 10:56:04;;;;;;;7.60;1.70;;;;;;;24.42;19.71;99621.00;5049853;28;20029;-51
2021/05/22 10:58:29;;;;;;;5.20;1.38;;;;;;;24.42;19.34;99606.47;5049219;28;20116;-54
2021/05/22 11:01:23;;;;;;;3.58;1.40;;;;;;;24.85;19.19;99621.38;5049577;28;20040;-52
2021/05/22 11:06:43;;;;;;;3.15;1.70;;;;;;;24.98;18.94;99640.41;5049421;28;20448;-53
2021/05/22 11:09:34;;;;;;;8.32;2.38;;;;;;;24.96;18.55;99630.72;5048732;28;20037;-65
2021/05/22 11:12:18;;;;;;;5.47;1.30;;;;;;;24.90;18.73;99629.75;5050125;28;20040;-60
2021/05/22 11:14:52;;;;;;;2.72;2.00;;;;;;;24.82;19.19;99632.75;5053923;28;20032;-48
2021/05/22 11:17:21;;;;;;;6.10;1.85;;;;;;;24.70;19.57;99625.22;5053196;28;20505;-54
2021/05/22 11:20:06;;;;;;;3.13;1.40;;;;;;;24.64;19.65;99620.66;5052875;28;20102;-51
2021/05/22 11:22:49;;;;;;;5.07;1.67;;;;;;;24.27;20.30;99635.00;5051788;28;20526;-57
2021/05/22 11:25:18;;;;;;;5.85;1.65;;;;;;;23.59;20.60;99608.97;5052314;28;20045;-60
2021/05/22 11:27:43;;;;;;;4.80;1.60;;;;;;;23.33;20.85;99622.47;5052857;28;20110;-53
2021/05/22 11:30:09;;;;;;;3.25;1.50;;;;;;;23.11;21.01;99623.72;5053074;28;20037;-49
2021/05/22 11:32:44;;;;;;;4.05;1.70;;;;;;;22.97;21.02;99625.63;5051959;28;20390;-48
2021/05/22 11:35:25;;;;;;;1.70;1.40;;;;;;;22.89;21.02;99627.53;5052370;28;20456;-52
2021/05/22 11:37:51;;;;;;;2.28;1.40;;;;;;;22.62;21.15;99607.56;5051247;28;20028;-53
2021/05/22 11:40:35;;;;;;;2.55;1.40;;;;;;;22.97;21.33;99626.47;5052371;28;20048;-49
2021/05/22 11:43:22;;;;;;;5.82;1.50;;;;;;;23.21;21.07;99629.59;5052820;28;20265;-48